createdAt,value
2018-11-25T00:01:15.274Z,34.13
2018-11-25T00:03:47.351Z,34.63
2018-11-25T00:06:18.871Z,32.73
2018-11-25T00:08:50.443Z,33.33
2018-11-25T00:11:22.096Z,31.93
2018-11-25T00:13:54.478Z,33.97
2018-11-25T00:16:26.990Z,31.63
2018-11-25T00:18:59.111Z,32.57
2018-11-25T00:21:30.952Z,33.60
2018-11-25T00:24:02.807Z,32.50
2018-11-25T00:26:34.635Z,33.33
2018-11-25T00:29:07.394Z,33.27
2018-11-25T00:31:40.359Z,33.93
2018-11-25T00:34:11.992Z,31.63
2018-11-25T00:36:50.020Z,34.77
2018-11-25T00:39:21.897Z,34.30
2018-11-25T00:41:53.162Z,35.77
2018-11-25T00:44:25.208Z,34.53
2018-11-25T00:46:57.084Z,32.40
2018-11-25T00:49:28.957Z,33.77
2018-11-25T00:52:00.667Z,33.37
2018-11-25T00:54:32.456Z,38.07
2018-11-25T00:57:05.002Z,34.97
2018-11-25T00:59:37.506Z,35.20
2018-11-25T01:02:08.629Z,36.63
2018-11-25T01:04:41.632Z,34.20
2018-11-25T01:07:13.832Z,35.97
2018-11-25T01:09:45.808Z,34.60
2018-11-25T01:12:17.657Z,34.87
2018-11-25T01:14:49.414Z,33.10
2018-11-25T01:17:20.816Z,33.23
2018-11-25T01:19:53.614Z,32.40
2018-11-25T01:22:24.961Z,33.13
2018-11-25T01:24:57.697Z,34.50
2018-11-25T01:27:31.409Z,32.93
2018-11-25T01:30:02.922Z,32.57
2018-11-25T01:32:35.414Z,33.47
2018-11-25T01:35:07.740Z,34.57
2018-11-25T01:37:41.164Z,35.90
2018-11-25T01:40:17.523Z,34.83
2018-11-25T01:42:49.834Z,34.53
2018-11-25T01:45:21.058Z,34.13
2018-11-25T01:47:52.494Z,36.67
2018-11-25T01:50:24.397Z,33.97
2018-11-25T01:52:55.612Z,37.23
2018-11-25T01:55:26.849Z,36.70
2018-11-25T01:57:58.805Z,38.53
2018-11-25T02:00:30.092Z,40.30
2018-11-25T02:03:01.995Z,40.60
2018-11-25T02:05:33.441Z,41.70
2018-11-25T02:08:05.135Z,40.03
2018-11-25T02:10:36.446Z,37.93
2018-11-25T02:13:07.993Z,39.63
2018-11-25T02:15:39.634Z,39.33
2018-11-25T02:18:11.065Z,41.47
2018-11-25T02:20:42.865Z,42.40
2018-11-25T02:23:14.285Z,43.30
2018-11-25T02:25:45.491Z,42.00
2018-11-25T02:28:17.282Z,41.30
2018-11-25T02:30:49.310Z,41.33
2018-11-25T02:33:21.289Z,44.20
2018-11-25T02:35:52.931Z,43.50
2018-11-25T02:38:24.383Z,41.30
2018-11-25T02:40:56.162Z,41.80
2018-11-25T02:43:28.105Z,45.27
2018-11-25T02:45:59.949Z,43.77
2018-11-25T02:48:31.834Z,48.67
2018-11-25T02:51:03.240Z,47.53
2018-11-25T02:53:34.354Z,45.50
2018-11-25T02:56:06.560Z,51.13
2018-11-25T02:58:37.344Z,50.10
2018-11-25T03:01:08.510Z,52.40
2018-11-25T03:03:39.938Z,52.33
2018-11-25T03:06:12.523Z,51.50
2018-11-25T03:08:43.635Z,49.20
2018-11-25T03:11:14.883Z,49.40
2018-11-25T03:13:46.853Z,51.37
2018-11-25T03:16:18.320Z,48.23
2018-11-25T03:18:49.555Z,50.13
2018-11-25T03:21:21.299Z,48.00
2018-11-25T03:23:53.664Z,49.57
2018-11-25T03:26:25.636Z,48.17
2018-11-25T03:28:57.199Z,47.40
2018-11-25T03:31:28.753Z,49.03
2018-11-25T03:34:00.241Z,49.17
2018-11-25T03:36:32.439Z,46.73
2018-11-25T03:39:04.082Z,46.73
2018-11-25T03:41:35.550Z,49.37
2018-11-25T03:44:06.736Z,48.50
2018-11-25T03:46:38.013Z,49.10
2018-11-25T03:49:09.682Z,50.10
2018-11-25T03:51:40.690Z,48.20
2018-11-25T03:54:12.114Z,48.70
2018-11-25T03:56:43.968Z,53.77
2018-11-25T03:59:15.945Z,47.43
2018-11-25T04:01:47.771Z,58.13
2018-11-25T04:04:18.977Z,49.73
2018-11-25T04:06:50.538Z,49.70
2018-11-25T04:09:22.033Z,44.17
2018-11-25T04:11:53.759Z,43.53
2018-11-25T04:14:25.222Z,44.40
2018-11-25T04:16:57.398Z,46.53
2018-11-25T04:19:29.014Z,46.00
2018-11-25T04:22:00.769Z,44.07
2018-11-25T04:24:32.664Z,41.13
2018-11-25T04:27:04.000Z,44.10
2018-11-25T04:29:35.684Z,42.23
2018-11-25T04:32:06.936Z,42.60
2018-11-25T04:34:38.293Z,39.87
2018-11-25T04:37:09.864Z,41.30
2018-11-25T04:39:41.376Z,38.73
2018-11-25T04:42:12.843Z,39.30
2018-11-25T04:44:45.127Z,38.60
2018-11-25T04:47:16.851Z,37.70
2018-11-25T04:49:48.006Z,39.63
2018-11-25T04:52:19.407Z,39.90
2018-11-25T04:54:51.680Z,41.80
2018-11-25T04:57:22.852Z,40.27
2018-11-25T04:59:54.076Z,41.63
2018-11-25T05:02:27.114Z,42.47
2018-11-25T05:05:00.985Z,43.27
2018-11-25T05:07:32.101Z,41.90
2018-11-25T05:10:04.014Z,42.47
2018-11-25T05:12:35.645Z,41.83
2018-11-25T05:15:08.020Z,43.60
2018-11-25T05:17:39.524Z,41.27
2018-11-25T05:20:11.762Z,39.77
2018-11-25T05:22:43.211Z,40.83
2018-11-25T05:25:17.090Z,43.17
2018-11-25T05:27:48.355Z,41.73
2018-11-25T05:30:20.431Z,39.77
2018-11-25T05:32:51.509Z,39.93
2018-11-25T05:35:22.809Z,40.40
2018-11-25T05:37:54.465Z,41.63
2018-11-25T05:40:25.442Z,39.43
2018-11-25T05:42:56.650Z,39.40
2018-11-25T05:45:28.279Z,37.63
2018-11-25T05:48:00.135Z,39.40
2018-11-25T05:50:31.919Z,36.53
2018-11-25T05:53:04.246Z,37.47
2018-11-25T05:55:36.240Z,35.70
2018-11-25T05:58:07.915Z,37.13
2018-11-25T06:00:39.901Z,38.93
2018-11-25T06:03:11.564Z,38.40
2018-11-25T06:05:42.824Z,36.87
2018-11-25T06:08:14.444Z,35.83
2018-11-25T06:10:46.234Z,36.13
2018-11-25T06:13:18.280Z,38.47
2018-11-25T06:15:49.751Z,37.30
2018-11-25T06:18:21.106Z,34.83
2018-11-25T06:20:52.845Z,38.50
2018-11-25T06:23:23.985Z,36.53
2018-11-25T06:25:55.558Z,38.03
2018-11-25T06:28:26.778Z,37.53
2018-11-25T06:30:58.321Z,37.43
2018-11-25T06:33:29.810Z,39.17
2018-11-25T06:36:01.164Z,39.47
2018-11-25T06:38:33.055Z,40.90
2018-11-25T06:41:04.593Z,39.67
2018-11-25T06:43:37.292Z,39.43
2018-11-25T06:46:10.423Z,39.40
2018-11-25T06:48:41.820Z,40.70
2018-11-25T06:51:12.446Z,39.93
2018-11-25T06:53:43.214Z,37.60
2018-11-25T06:56:14.533Z,39.37
2018-11-25T06:58:45.112Z,38.63
2018-11-25T07:01:15.904Z,38.57
2018-11-25T07:03:46.544Z,37.17
2018-11-25T07:06:17.210Z,36.80
2018-11-25T07:08:47.867Z,38.23
2018-11-25T07:11:18.678Z,34.13
2018-11-25T07:13:49.079Z,36.67
2018-11-25T07:16:19.827Z,34.83
2018-11-25T07:18:50.314Z,35.80
2018-11-25T07:21:21.347Z,35.77
2018-11-25T07:23:52.904Z,34.00
2018-11-25T07:26:24.333Z,36.23
2018-11-25T07:28:56.009Z,35.90
2018-11-25T07:31:27.269Z,36.23
2018-11-25T07:33:59.279Z,35.10
2018-11-25T07:36:32.063Z,32.47
2018-11-25T07:39:03.396Z,34.47
2018-11-25T07:41:34.941Z,32.60
2018-11-25T07:44:06.569Z,32.47
2018-11-25T07:46:38.463Z,32.17
2018-11-25T07:49:09.787Z,32.63
2018-11-25T07:51:41.514Z,30.77
2018-11-25T07:54:14.532Z,30.50
2018-11-25T07:56:45.480Z,28.93
2018-11-25T07:59:16.902Z,28.93
2018-11-25T08:01:48.306Z,27.00
2018-11-25T08:04:19.763Z,26.50
2018-11-25T08:06:50.325Z,26.53
2018-11-25T08:09:20.843Z,24.90
2018-11-25T08:11:51.951Z,25.27
2018-11-25T08:14:23.259Z,25.40
2018-11-25T08:16:56.691Z,24.70
2018-11-25T08:19:27.341Z,25.73
2018-11-25T08:21:58.111Z,24.90
2018-11-25T08:24:29.288Z,25.10
2018-11-25T08:27:00.015Z,24.13
2018-11-25T08:29:31.272Z,26.90
2018-11-25T08:32:02.566Z,26.50
2018-11-25T08:34:33.613Z,26.63
2018-11-25T08:37:04.271Z,25.83
2018-11-25T08:39:35.643Z,25.90
2018-11-25T08:42:07.311Z,28.07
2018-11-25T08:44:38.029Z,27.77
2018-11-25T08:47:08.897Z,27.93
2018-11-25T08:49:40.381Z,27.60
2018-11-25T08:52:12.146Z,30.83
2018-11-25T08:54:43.153Z,31.30
2018-11-25T08:57:13.957Z,32.27
2018-11-25T08:59:45.260Z,33.10
2018-11-25T09:02:18.748Z,34.17
2018-11-25T09:04:51.255Z,34.97
2018-11-25T09:07:22.021Z,34.23
2018-11-25T09:09:52.711Z,34.80
2018-11-25T09:12:23.908Z,36.27
2018-11-25T09:14:54.943Z,35.33
2018-11-25T09:17:32.101Z,36.63
2018-11-25T09:20:02.285Z,37.20
2018-11-25T09:22:32.960Z,37.97
2018-11-25T09:25:03.615Z,37.43
2018-11-25T09:27:35.070Z,37.10
2018-11-25T09:30:08.229Z,36.23
2018-11-25T09:32:39.091Z,33.67
2018-11-25T09:35:11.262Z,33.77
2018-11-25T09:37:44.209Z,34.03
2018-11-25T09:40:20.019Z,34.83
2018-11-25T09:42:52.537Z,33.80
2018-11-25T09:45:25.994Z,31.70
2018-11-25T09:47:57.561Z,32.80
2018-11-25T09:50:29.379Z,32.00
2018-11-25T09:53:01.260Z,33.17
2018-11-25T09:55:34.320Z,31.97
2018-11-25T09:58:06.620Z,32.87
2018-11-25T10:00:37.547Z,32.93
2018-11-25T10:03:09.427Z,31.43
2018-11-25T10:05:40.869Z,32.67
2018-11-25T10:08:17.160Z,32.23
2018-11-25T10:10:52.621Z,33.57
2018-11-25T10:13:20.180Z,34.53
2018-11-25T10:15:51.934Z,33.53
2018-11-25T10:18:23.533Z,35.60
2018-11-25T10:20:53.997Z,33.47
2018-11-25T10:23:25.741Z,32.93
2018-11-25T10:25:57.586Z,34.27
2018-11-25T10:28:29.855Z,33.47
2018-11-25T10:31:01.504Z,32.00
2018-11-25T10:33:45.352Z,34.53
2018-11-25T10:36:25.934Z,34.63
2018-11-25T10:39:14.486Z,31.77
2018-11-25T10:41:45.407Z,33.40
2018-11-25T10:44:18.175Z,32.73
2018-11-25T10:46:54.752Z,34.17
2018-11-25T10:49:27.030Z,33.43
2018-11-25T10:51:59.006Z,35.20
2018-11-25T10:54:30.450Z,33.53
2018-11-25T10:57:02.194Z,34.13
2018-11-25T10:59:34.447Z,32.63
2018-11-25T11:02:11.086Z,34.00
2018-11-25T11:04:46.789Z,33.03
2018-11-25T11:07:28.077Z,32.93
2018-11-25T11:09:59.825Z,33.73
2018-11-25T11:12:30.989Z,34.53
2018-11-25T11:15:01.854Z,34.97
2018-11-25T11:17:32.855Z,33.80
2018-11-25T11:20:04.255Z,35.30
2018-11-25T11:22:35.178Z,34.83
2018-11-25T11:25:06.666Z,32.77
2018-11-25T11:27:43.164Z,33.23
2018-11-25T11:30:13.851Z,33.40
2018-11-25T11:32:46.528Z,32.40
2018-11-25T11:35:17.469Z,30.97
2018-11-25T11:37:49.153Z,33.20
2018-11-25T11:40:20.854Z,28.67
2018-11-25T11:42:51.447Z,29.97
2018-11-25T11:45:28.031Z,29.27
2018-11-25T11:47:58.926Z,27.30
2018-11-25T11:50:30.097Z,27.63
2018-11-25T11:53:01.114Z,28.37
2018-11-25T11:55:31.603Z,29.53
2018-11-25T11:58:02.657Z,32.37
2018-11-25T12:00:35.024Z,31.67
2018-11-25T12:03:05.857Z,32.27
2018-11-25T12:05:37.102Z,32.93
2018-11-25T12:08:08.603Z,32.50
2018-11-25T12:10:39.713Z,33.53
2018-11-25T12:13:11.518Z,33.87
2018-11-25T12:15:42.436Z,33.40
2018-11-25T12:18:14.435Z,31.83
2018-11-25T12:20:46.125Z,32.73
2018-11-25T12:23:16.956Z,32.17
2018-11-25T12:25:47.746Z,32.70
2018-11-25T12:28:23.251Z,31.03
2018-11-25T12:30:54.382Z,31.50
2018-11-25T12:33:26.826Z,30.93
2018-11-25T12:35:57.394Z,32.33
2018-11-25T12:38:28.754Z,31.80
2018-11-25T12:41:00.635Z,29.73
2018-11-25T12:43:31.051Z,30.20
2018-11-25T12:46:01.485Z,30.43
2018-11-25T12:48:32.856Z,30.47
2018-11-25T12:51:03.474Z,29.53
2018-11-25T12:53:35.825Z,29.40
2018-11-25T12:56:06.499Z,28.47
2018-11-25T12:58:36.815Z,28.67
2018-11-25T13:01:07.165Z,29.77
2018-11-25T13:03:38.031Z,29.33
2018-11-25T13:06:08.259Z,29.17
2018-11-25T13:08:39.523Z,30.13
2018-11-25T13:11:09.749Z,29.53
2018-11-25T13:13:56.969Z,29.93
2018-11-25T13:16:27.209Z,29.63
2018-11-25T13:18:57.321Z,29.50
2018-11-25T13:21:27.510Z,27.87
2018-11-25T13:23:57.872Z,27.90
2018-11-25T13:26:28.594Z,27.07
2018-11-25T13:28:58.906Z,25.80
2018-11-25T13:31:29.230Z,26.73
2018-11-25T13:33:59.522Z,28.03
2018-11-25T13:36:30.627Z,26.40
2018-11-25T13:39:01.673Z,28.03
2018-11-25T13:41:31.710Z,29.30
2018-11-25T13:44:02.522Z,25.57
2018-11-25T13:46:34.165Z,25.97
2018-11-25T13:49:05.219Z,26.93
2018-11-25T13:51:37.777Z,26.10
2018-11-25T13:54:09.442Z,25.53
2018-11-25T13:56:41.824Z,26.17
2018-11-25T13:59:14.079Z,25.60
2018-11-25T14:01:45.942Z,25.37
2018-11-25T14:04:16.464Z,27.10
2018-11-25T14:06:47.200Z,26.73
2018-11-25T14:09:22.089Z,26.67
2018-11-25T14:11:53.218Z,27.53
2018-11-25T14:14:26.951Z,27.73
2018-11-25T14:16:59.319Z,27.63
2018-11-25T14:20:33.317Z,28.77
2018-11-25T14:23:04.052Z,28.47
2018-11-25T14:25:35.467Z,29.80
2018-11-25T14:28:09.439Z,29.30
2018-11-25T14:30:39.926Z,29.03
2018-11-25T14:33:10.874Z,27.63
2018-11-25T14:35:41.367Z,27.83
2018-11-25T14:38:12.315Z,29.33
2018-11-25T14:40:43.438Z,29.00
2018-11-25T14:43:14.677Z,24.23
2018-11-25T14:45:45.599Z,26.20
2018-11-25T14:48:15.984Z,27.77
2018-11-25T14:50:46.496Z,31.17
2018-11-25T14:53:17.359Z,28.93
2018-11-25T14:55:51.154Z,27.30
2018-11-25T14:58:25.223Z,26.47
2018-11-25T15:00:56.201Z,27.67
2018-11-25T15:03:26.682Z,27.37
2018-11-25T15:05:58.827Z,28.43
2018-11-25T15:08:33.251Z,27.70
2018-11-25T15:11:06.780Z,28.77
2018-11-25T15:13:38.582Z,28.23
2018-11-25T15:16:11.557Z,27.23
2018-11-25T15:18:43.977Z,27.83
2018-11-25T15:21:15.724Z,27.23
2018-11-25T15:23:47.318Z,28.33
2018-11-25T15:26:19.879Z,27.57
2018-11-25T15:28:51.110Z,27.47
2018-11-25T15:31:23.292Z,29.17
2018-11-25T15:33:54.812Z,27.23
2018-11-25T15:36:28.526Z,29.13
2018-11-25T15:39:00.644Z,29.13
2018-11-25T15:41:32.547Z,31.23
2018-11-25T15:44:03.611Z,32.07
2018-11-25T15:46:43.165Z,30.17
2018-11-25T15:50:33.552Z,30.87
2018-11-25T15:53:04.816Z,31.33
2018-11-25T15:55:36.301Z,30.83
2018-11-25T15:58:08.138Z,32.87
2018-11-25T16:00:39.628Z,33.30
2018-11-25T16:03:11.053Z,33.67
2018-11-25T16:05:44.535Z,36.10
2018-11-25T16:08:17.082Z,34.87
2018-11-25T16:10:51.124Z,35.90
2018-11-25T16:17:43.469Z,34.57
2018-11-25T16:20:44.772Z,35.30
2018-11-25T16:23:15.891Z,35.20
2018-11-25T16:25:53.443Z,35.57
2018-11-25T16:28:30.372Z,35.10
2018-11-25T16:31:03.180Z,35.77
2018-11-25T16:33:38.672Z,34.47
2018-11-25T16:36:10.610Z,35.30
2018-11-25T16:38:43.477Z,32.87
2018-11-25T16:41:14.814Z,32.40
2018-11-25T16:43:49.443Z,35.00
2018-11-25T16:46:55.371Z,35.30
2018-11-25T16:49:27.991Z,34.40
2018-11-25T16:52:01.168Z,32.87
2018-11-25T16:54:34.076Z,34.73
2018-11-25T16:57:25.343Z,36.80
2018-11-25T17:00:02.523Z,35.33
2018-11-25T17:02:42.831Z,37.27
2018-11-25T17:05:32.073Z,37.60
2018-11-25T17:08:46.355Z,35.13
2018-11-25T17:11:28.994Z,35.97
2018-11-25T17:14:12.182Z,37.37
2018-11-25T17:16:55.067Z,35.37
2018-11-25T17:19:40.822Z,35.37
2018-11-25T17:22:19.147Z,32.47
2018-11-25T17:25:04.485Z,35.23
2018-11-25T17:27:49.039Z,35.67
2018-11-25T17:30:34.899Z,34.63
2018-11-25T17:36:08.765Z,36.07
2018-11-25T17:38:50.997Z,34.40
2018-11-25T17:41:25.717Z,30.87
2018-11-25T17:44:00.565Z,32.90
2018-11-25T17:46:36.436Z,32.83
2018-11-25T17:49:14.283Z,32.97
2018-11-25T17:51:56.821Z,30.37
2018-11-25T17:54:34.619Z,33.20
2018-11-25T17:57:10.121Z,34.17
2018-11-25T17:59:43.710Z,34.53
2018-11-25T18:02:15.290Z,33.77
2018-11-25T18:04:47.215Z,32.87
2018-11-25T18:07:19.420Z,31.73
2018-11-25T18:09:51.844Z,30.33
2018-11-25T18:12:25.339Z,33.00
2018-11-25T18:14:57.750Z,30.63
2018-11-25T18:17:30.416Z,33.30
2018-11-25T18:20:02.929Z,33.83
2018-11-25T18:22:44.944Z,31.40
2018-11-25T18:25:16.658Z,33.47
2018-11-25T18:27:48.667Z,31.73
2018-11-25T18:30:20.435Z,33.40
2018-11-25T18:32:59.620Z,34.33
2018-11-25T18:35:30.544Z,50.80
2018-11-25T18:38:02.810Z,41.67
2018-11-25T18:40:35.907Z,38.23
2018-11-25T18:43:11.081Z,36.77
2018-11-25T18:45:42.720Z,32.10
2018-11-25T18:48:15.518Z,33.20
2018-11-25T18:50:49.098Z,33.00
2018-11-25T18:53:19.599Z,34.53
2018-11-25T18:55:49.970Z,33.53
2018-11-25T18:58:20.607Z,32.33
2018-11-25T19:00:57.578Z,32.60
2018-11-25T19:03:30.130Z,33.77
2018-11-25T19:06:02.145Z,33.07
2018-11-25T19:08:34.772Z,34.77
2018-11-25T19:11:07.572Z,32.57
2018-11-25T19:13:39.458Z,32.00
2018-11-25T19:16:11.122Z,31.33
2018-11-25T19:18:53.886Z,34.83
2018-11-25T19:21:27.918Z,39.27
2018-11-25T19:24:02.885Z,38.47
2018-11-25T19:26:47.970Z,38.53
2018-11-25T19:29:20.407Z,44.17
2018-11-25T19:31:53.834Z,33.00
2018-11-25T19:34:27.597Z,32.13
2018-11-25T19:37:00.100Z,36.93
2018-11-25T19:39:33.090Z,40.57
2018-11-25T19:42:05.362Z,32.50
2018-11-25T19:44:37.682Z,30.57
2018-11-25T19:47:11.250Z,34.70
2018-11-25T19:49:43.436Z,34.50
2018-11-25T19:52:15.645Z,29.87
2018-11-25T19:54:47.709Z,31.90
2018-11-25T19:57:20.786Z,29.90
2018-11-25T19:59:52.148Z,30.57
2018-11-25T20:02:23.956Z,31.93
2018-11-25T20:04:54.684Z,33.33
2018-11-25T20:07:25.898Z,44.77
2018-11-25T20:09:57.182Z,29.33
2018-11-25T20:12:36.895Z,31.13
2018-11-25T20:15:08.672Z,30.97
2018-11-25T20:17:40.108Z,29.17
2018-11-25T20:20:15.118Z,29.83
2018-11-25T20:22:46.891Z,29.93
2018-11-25T20:25:18.611Z,29.83
2018-11-25T20:27:51.934Z,28.13
2018-11-25T20:30:28.534Z,30.20
2018-11-25T20:33:05.414Z,30.23
2018-11-25T20:35:36.899Z,30.37
2018-11-25T20:38:14.342Z,28.93
2018-11-25T20:40:48.953Z,31.13
2018-11-25T20:43:21.032Z,31.93
2018-11-25T20:45:56.977Z,30.80
2018-11-25T20:48:28.340Z,32.00
2018-11-25T20:51:16.902Z,31.30
2018-11-25T20:53:55.736Z,32.43
2018-11-25T20:56:26.409Z,32.30
2018-11-25T20:59:02.969Z,33.97
2018-11-25T21:01:34.700Z,33.87
2018-11-25T21:04:09.383Z,35.47
2018-11-25T21:06:41.604Z,32.27
2018-11-25T21:09:12.244Z,33.57
2018-11-25T21:11:44.404Z,33.03
2018-11-25T21:14:15.834Z,33.97
2018-11-25T21:16:46.784Z,32.43
2018-11-25T21:19:18.456Z,33.93
2018-11-25T21:21:53.155Z,34.60
2018-11-25T21:24:28.123Z,34.53
2018-11-25T21:27:00.294Z,33.60
2018-11-25T21:29:32.977Z,34.90
2018-11-25T21:32:03.858Z,34.60
2018-11-25T21:34:34.745Z,35.17
2018-11-25T21:37:08.052Z,35.57
2018-11-25T21:39:39.646Z,35.93
2018-11-25T21:42:14.182Z,33.63
2018-11-25T21:44:48.004Z,36.17
2018-11-25T21:47:18.669Z,36.90
2018-11-25T21:49:50.654Z,37.93
2018-11-25T21:52:22.283Z,37.90
2018-11-25T21:54:54.751Z,36.80
2018-11-25T21:57:29.721Z,36.70
2018-11-25T22:00:05.870Z,35.77
2018-11-25T22:02:38.628Z,37.30
2018-11-25T22:05:11.645Z,40.13
2018-11-25T22:07:43.485Z,41.47
2018-11-25T22:10:19.205Z,39.23
2018-11-25T22:12:52.222Z,39.30
2018-11-25T22:15:29.217Z,39.03
2018-11-25T22:18:01.936Z,38.90
2018-11-25T22:20:35.368Z,39.43
2018-11-25T22:23:08.138Z,41.33
2018-11-25T22:25:41.563Z,37.33
2018-11-25T22:28:14.258Z,40.80
2018-11-25T22:30:46.482Z,40.47
2018-11-25T22:33:18.664Z,39.83
2018-11-25T22:35:50.104Z,41.70
2018-11-25T22:38:24.084Z,39.87
2018-11-25T22:40:56.706Z,43.30
2018-11-25T22:43:27.725Z,43.47
2018-11-25T22:45:59.777Z,42.93
2018-11-25T22:48:31.716Z,41.57
2018-11-25T22:51:04.259Z,40.10
2018-11-25T22:53:35.499Z,42.63
2018-11-25T22:56:07.937Z,42.30
2018-11-25T22:58:39.233Z,43.80
2018-11-25T23:01:10.475Z,38.23
2018-11-25T23:03:42.240Z,41.57
2018-11-25T23:06:24.372Z,41.67
2018-11-25T23:08:57.522Z,42.53
2018-11-25T23:11:29.748Z,42.13
2018-11-25T23:14:00.916Z,41.57
2018-11-25T23:16:32.001Z,44.03
2018-11-25T23:19:03.779Z,43.70
2018-11-25T23:21:35.472Z,43.43
2018-11-25T23:24:08.078Z,40.43
2018-11-25T23:26:40.711Z,42.03
2018-11-25T23:29:12.746Z,42.43
2018-11-25T23:31:44.992Z,43.03
2018-11-25T23:34:17.103Z,43.53
2018-11-25T23:36:49.430Z,43.97
2018-11-25T23:39:21.674Z,37.40
2018-11-25T23:41:53.850Z,43.90
2018-11-25T23:44:25.115Z,42.27
2018-11-25T23:46:56.647Z,43.03
2018-11-25T23:49:29.091Z,42.73
2018-11-25T23:52:01.230Z,34.77
2018-11-25T23:54:33.808Z,42.03
2018-11-25T23:57:05.374Z,40.33
2018-11-25T23:59:37.225Z,42.13
